sensor_id;sensor_type;location;lat;lon;timestamp;temperature;humidity
13817;DHT22;6979;52.116;5.286;2022-12-10T00:01:20;4.00;99.90
13817;DHT22;6979;52.116;5.286;2022-12-10T00:03:47;4.00;99.90
13817;DHT22;6979;52.116;5.286;2022-12-10T00:06:16;4.10;99.90
13817;DHT22;6979;52.116;5.286;2022-12-10T00:08:43;4.10;99.90
13817;DHT22;6979;52.116;5.286;2022-12-10T00:11:13;4.00;99.90
13817;DHT22;6979;52.116;5.286;2022-12-10T00:13:41;4.10;99.90
13817;DHT22;6979;52.116;5.286;2022-12-10T00:16:11;4.10;99.90
13817;DHT22;6979;52.116;5.286;2022-12-10T00:18:38;4.10;99.90
13817;DHT22;6979;52.116;5.286;2022-12-10T00:21:07;4.10;99.90
13817;DHT22;6979;52.116;5.286;2022-12-10T00:23:35;4.10;99.90
13817;DHT22;6979;52.116;5.286;2022-12-10T00:26:03;4.10;99.90
13817;DHT22;6979;52.116;5.286;2022-12-10T00:28:32;4.20;99.90
13817;DHT22;6979;52.116;5.286;2022-12-10T00:31:03;4.10;99.90
13817;DHT22;6979;52.116;5.286;2022-12-10T00:33:30;4.20;99.90
13817;DHT22;6979;52.116;5.286;2022-12-10T00:36:02;4.20;99.90
13817;DHT22;6979;52.116;5.286;2022-12-10T00:38:29;4.20;99.90
13817;DHT22;6979;52.116;5.286;2022-12-10T00:40:56;4.20;99.90
13817;DHT22;6979;52.116;5.286;2022-12-10T00:43:23;4.20;99.90
13817;DHT22;6979;52.116;5.286;2022-12-10T00:45:51;4.20;99.90
13817;DHT22;6979;52.116;5.286;2022-12-10T00:48:18;4.20;99.90
13817;DHT22;6979;52.116;5.286;2022-12-10T00:50:55;4.20;99.90
13817;DHT22;6979;52.116;5.286;2022-12-10T00:53:23;4.20;99.90
13817;DHT22;6979;52.116;5.286;2022-12-10T00:55:50;4.20;99.90
13817;DHT22;6979;52.116;5.286;2022-12-10T00:58:18;4.20;99.90
13817;DHT22;6979;52.116;5.286;2022-12-10T01:00:45;4.20;99.90
13817;DHT22;6979;52.116;5.286;2022-12-10T01:03:14;4.20;99.90
13817;DHT22;6979;52.116;5.286;2022-12-10T01:05:41;4.20;99.90
13817;DHT22;6979;52.116;5.286;2022-12-10T01:08:08;4.20;99.90
13817;DHT22;6979;52.116;5.286;2022-12-10T01:10:36;4.20;99.90
13817;DHT22;6979;52.116;5.286;2022-12-10T01:13:03;4.20;99.90
13817;DHT22;6979;52.116;5.286;2022-12-10T01:15:30;4.10;99.90
13817;DHT22;6979;52.116;5.286;2022-12-10T01:17:57;4.20;99.90
13817;DHT22;6979;52.116;5.286;2022-12-10T01:20:25;4.20;99.90
13817;DHT22;6979;52.116;5.286;2022-12-10T01:22:52;4.10;99.90
13817;DHT22;6979;52.116;5.286;2022-12-10T01:25:19;4.20;99.90
13817;DHT22;6979;52.116;5.286;2022-12-10T01:27:46;4.10;99.90
13817;DHT22;6979;52.116;5.286;2022-12-10T01:30:13;4.20;99.90
13817;DHT22;6979;52.116;5.286;2022-12-10T01:32:39;4.10;99.90
13817;DHT22;6979;52.116;5.286;2022-12-10T01:35:07;4.10;99.90
13817;DHT22;6979;52.116;5.286;2022-12-10T01:37:35;4.10;99.90
13817;DHT22;6979;52.116;5.286;2022-12-10T01:40:06;4.10;99.90
13817;DHT22;6979;52.116;5.286;2022-12-10T01:42:33;4.10;99.90
13817;DHT22;6979;52.116;5.286;2022-12-10T01:45:05;4.10;99.90
13817;DHT22;6979;52.116;5.286;2022-12-10T01:47:32;4.10;99.90
13817;DHT22;6979;52.116;5.286;2022-12-10T01:49:59;4.10;99.90
13817;DHT22;6979;52.116;5.286;2022-12-10T01:52:27;4.10;99.90
13817;DHT22;6979;52.116;5.286;2022-12-10T01:54:56;4.20;99.90
13817;DHT22;6979;52.116;5.286;2022-12-10T01:57:26;4.20;99.90
13817;DHT22;6979;52.116;5.286;2022-12-10T01:59:55;4.20;99.90
13817;DHT22;6979;52.116;5.286;2022-12-10T02:02:30;4.20;99.90
13817;DHT22;6979;52.116;5.286;2022-12-10T02:05:21;4.20;99.90
13817;DHT22;6979;52.116;5.286;2022-12-10T02:07:59;4.20;99.90
13817;DHT22;6979;52.116;5.286;2022-12-10T02:10:50;4.20;99.90
13817;DHT22;6979;52.116;5.286;2022-12-10T02:13:24;4.20;99.90
13817;DHT22;6979;52.116;5.286;2022-12-10T02:16:00;4.20;99.90
13817;DHT22;6979;52.116;5.286;2022-12-10T02:18:33;4.20;99.90
13817;DHT22;6979;52.116;5.286;2022-12-10T02:21:06;4.20;99.90
13817;DHT22;6979;52.116;5.286;2022-12-10T02:23:36;4.20;99.90
13817;DHT22;6979;52.116;5.286;2022-12-10T02:26:12;4.20;99.90
13817;DHT22;6979;52.116;5.286;2022-12-10T02:28:47;4.20;99.90
13817;DHT22;6979;52.116;5.286;2022-12-10T02:31:19;4.20;99.90
13817;DHT22;6979;52.116;5.286;2022-12-10T02:33:51;4.20;99.90
13817;DHT22;6979;52.116;5.286;2022-12-10T02:36:21;4.20;99.90
13817;DHT22;6979;52.116;5.286;2022-12-10T02:38:51;4.20;99.90
13817;DHT22;6979;52.116;5.286;2022-12-10T02:41:25;4.20;99.90
13817;DHT22;6979;52.116;5.286;2022-12-10T02:43:58;4.20;99.90
13817;DHT22;6979;52.116;5.286;2022-12-10T02:46:28;4.30;99.90
13817;DHT22;6979;52.116;5.286;2022-12-10T02:48:58;4.30;99.90
13817;DHT22;6979;52.116;5.286;2022-12-10T02:51:26;4.20;99.90
13817;DHT22;6979;52.116;5.286;2022-12-10T02:54:01;4.30;99.90
13817;DHT22;6979;52.116;5.286;2022-12-10T02:56:33;4.30;99.90
13817;DHT22;6979;52.116;5.286;2022-12-10T02:59:09;4.30;99.90
13817;DHT22;6979;52.116;5.286;2022-12-10T03:01:46;4.30;99.90
13817;DHT22;6979;52.116;5.286;2022-12-10T03:04:25;4.30;99.90
13817;DHT22;6979;52.116;5.286;2022-12-10T03:06:55;4.20;99.90
13817;DHT22;6979;52.116;5.286;2022-12-10T03:09:27;4.30;99.90
13817;DHT22;6979;52.116;5.286;2022-12-10T03:11:58;4.30;99.90
13817;DHT22;6979;52.116;5.286;2022-12-10T03:14:29;4.30;99.90
13817;DHT22;6979;52.116;5.286;2022-12-10T03:17:00;4.30;99.90
13817;DHT22;6979;52.116;5.286;2022-12-10T03:19:32;4.30;99.90
13817;DHT22;6979;52.116;5.286;2022-12-10T03:22:02;4.30;99.90
13817;DHT22;6979;52.116;5.286;2022-12-10T03:24:31;4.30;99.90
13817;DHT22;6979;52.116;5.286;2022-12-10T03:26:59;4.30;99.90
13817;DHT22;6979;52.116;5.286;2022-12-10T03:29:30;4.20;99.90
13817;DHT22;6979;52.116;5.286;2022-12-10T03:32:11;4.20;99.90
13817;DHT22;6979;52.116;5.286;2022-12-10T03:34:39;4.20;99.90
13817;DHT22;6979;52.116;5.286;2022-12-10T03:37:07;4.20;99.90
13817;DHT22;6979;52.116;5.286;2022-12-10T03:39:36;4.30;99.90
13817;DHT22;6979;52.116;5.286;2022-12-10T03:42:05;4.30;99.90
13817;DHT22;6979;52.116;5.286;2022-12-10T03:44:33;4.30;99.90
13817;DHT22;6979;52.116;5.286;2022-12-10T03:47:05;4.30;99.90
13817;DHT22;6979;52.116;5.286;2022-12-10T03:49:33;4.30;99.90
13817;DHT22;6979;52.116;5.286;2022-12-10T03:52:00;4.20;99.90
13817;DHT22;6979;52.116;5.286;2022-12-10T03:54:27;4.20;99.90
13817;DHT22;6979;52.116;5.286;2022-12-10T03:56:54;4.20;99.90
13817;DHT22;6979;52.116;5.286;2022-12-10T03:59:24;4.20;99.90
13817;DHT22;6979;52.116;5.286;2022-12-10T04:01:51;4.20;99.90
13817;DHT22;6979;52.116;5.286;2022-12-10T04:04:19;4.20;99.90
13817;DHT22;6979;52.116;5.286;2022-12-10T04:06:46;4.20;99.90
13817;DHT22;6979;52.116;5.286;2022-12-10T04:09:14;4.20;99.90
13817;DHT22;6979;52.116;5.286;2022-12-10T04:11:42;4.10;99.90
13817;DHT22;6979;52.116;5.286;2022-12-10T04:14:09;4.10;99.90
13817;DHT22;6979;52.116;5.286;2022-12-10T04:16:50;4.10;99.90
13817;DHT22;6979;52.116;5.286;2022-12-10T04:19:18;4.10;99.90
13817;DHT22;6979;52.116;5.286;2022-12-10T04:21:46;4.10;99.90
13817;DHT22;6979;52.116;5.286;2022-12-10T04:24:33;4.10;99.90
13817;DHT22;6979;52.116;5.286;2022-12-10T04:27:20;4.10;99.90
13817;DHT22;6979;52.116;5.286;2022-12-10T04:29:47;4.10;99.90
13817;DHT22;6979;52.116;5.286;2022-12-10T04:32:15;4.10;99.90
13817;DHT22;6979;52.116;5.286;2022-12-10T04:34:44;4.10;99.90
13817;DHT22;6979;52.116;5.286;2022-12-10T04:37:12;4.00;99.90
13817;DHT22;6979;52.116;5.286;2022-12-10T04:39:39;4.10;99.90
13817;DHT22;6979;52.116;5.286;2022-12-10T04:42:06;4.10;99.90
13817;DHT22;6979;52.116;5.286;2022-12-10T04:44:35;4.00;99.90
13817;DHT22;6979;52.116;5.286;2022-12-10T04:47:03;4.00;99.90
13817;DHT22;6979;52.116;5.286;2022-12-10T04:49:30;4.00;99.90
13817;DHT22;6979;52.116;5.286;2022-12-10T04:51:59;4.00;99.90
13817;DHT22;6979;52.116;5.286;2022-12-10T04:54:26;4.00;99.90
13817;DHT22;6979;52.116;5.286;2022-12-10T04:56:53;4.10;99.90
13817;DHT22;6979;52.116;5.286;2022-12-10T04:59:20;4.10;99.90
13817;DHT22;6979;52.116;5.286;2022-12-10T05:01:47;4.10;99.90
13817;DHT22;6979;52.116;5.286;2022-12-10T05:04:15;4.10;99.90
13817;DHT22;6979;52.116;5.286;2022-12-10T05:06:43;4.10;99.90
13817;DHT22;6979;52.116;5.286;2022-12-10T05:09:12;4.20;99.90
13817;DHT22;6979;52.116;5.286;2022-12-10T05:11:39;4.10;99.90
13817;DHT22;6979;52.116;5.286;2022-12-10T05:14:09;4.20;99.90
13817;DHT22;6979;52.116;5.286;2022-12-10T05:16:36;4.20;99.90
13817;DHT22;6979;52.116;5.286;2022-12-10T05:19:03;4.20;99.90
13817;DHT22;6979;52.116;5.286;2022-12-10T05:21:30;4.20;99.90
13817;DHT22;6979;52.116;5.286;2022-12-10T05:24:12;4.20;99.90
13817;DHT22;6979;52.116;5.286;2022-12-10T05:26:39;4.30;99.90
13817;DHT22;6979;52.116;5.286;2022-12-10T05:29:06;4.30;99.90
13817;DHT22;6979;52.116;5.286;2022-12-10T05:31:34;4.20;99.90
13817;DHT22;6979;52.116;5.286;2022-12-10T05:34:01;4.20;99.90
13817;DHT22;6979;52.116;5.286;2022-12-10T05:36:30;4.20;99.90
13817;DHT22;6979;52.116;5.286;2022-12-10T05:38:57;4.20;99.90
13817;DHT22;6979;52.116;5.286;2022-12-10T05:41:28;4.20;99.90
13817;DHT22;6979;52.116;5.286;2022-12-10T05:43:56;4.20;99.90
13817;DHT22;6979;52.116;5.286;2022-12-10T05:46:25;4.20;99.90
13817;DHT22;6979;52.116;5.286;2022-12-10T05:48:53;4.20;99.90
13817;DHT22;6979;52.116;5.286;2022-12-10T05:51:22;4.20;99.90
13817;DHT22;6979;52.116;5.286;2022-12-10T05:53:50;4.20;99.90
13817;DHT22;6979;52.116;5.286;2022-12-10T05:56:19;4.20;99.90
13817;DHT22;6979;52.116;5.286;2022-12-10T05:58:50;4.20;99.90
13817;DHT22;6979;52.116;5.286;2022-12-10T06:01:19;4.20;99.90
13817;DHT22;6979;52.116;5.286;2022-12-10T06:03:48;4.20;99.90
13817;DHT22;6979;52.116;5.286;2022-12-10T06:06:20;4.10;99.90
13817;DHT22;6979;52.116;5.286;2022-12-10T06:08:48;4.10;99.90
13817;DHT22;6979;52.116;5.286;2022-12-10T06:11:15;4.10;99.90
13817;DHT22;6979;52.116;5.286;2022-12-10T06:13:43;4.10;99.90
13817;DHT22;6979;52.116;5.286;2022-12-10T06:16:13;4.10;99.90
13817;DHT22;6979;52.116;5.286;2022-12-10T06:18:41;4.10;99.90
13817;DHT22;6979;52.116;5.286;2022-12-10T06:21:10;4.10;99.90
13817;DHT22;6979;52.116;5.286;2022-12-10T06:23:38;4.10;99.90
13817;DHT22;6979;52.116;5.286;2022-12-10T06:26:06;4.10;99.90
13817;DHT22;6979;52.116;5.286;2022-12-10T06:28:33;4.10;99.90
13817;DHT22;6979;52.116;5.286;2022-12-10T06:31:00;4.10;99.90
13817;DHT22;6979;52.116;5.286;2022-12-10T06:33:28;4.10;99.90
13817;DHT22;6979;52.116;5.286;2022-12-10T06:35:55;4.10;99.90
13817;DHT22;6979;52.116;5.286;2022-12-10T06:38:24;4.10;99.90
13817;DHT22;6979;52.116;5.286;2022-12-10T06:40:51;4.20;99.90
13817;DHT22;6979;52.116;5.286;2022-12-10T06:43:18;4.10;99.90
13817;DHT22;6979;52.116;5.286;2022-12-10T06:45:45;4.10;99.90
13817;DHT22;6979;52.116;5.286;2022-12-10T06:48:12;4.10;99.90
13817;DHT22;6979;52.116;5.286;2022-12-10T06:50:41;4.10;99.90
13817;DHT22;6979;52.116;5.286;2022-12-10T06:53:08;4.10;99.90
13817;DHT22;6979;52.116;5.286;2022-12-10T06:55:36;4.10;99.90
13817;DHT22;6979;52.116;5.286;2022-12-10T06:58:04;4.10;99.90
13817;DHT22;6979;52.116;5.286;2022-12-10T07:00:31;4.10;99.90
13817;DHT22;6979;52.116;5.286;2022-12-10T07:02:58;4.10;99.90
13817;DHT22;6979;52.116;5.286;2022-12-10T07:05:25;4.10;99.90
13817;DHT22;6979;52.116;5.286;2022-12-10T07:07:53;4.00;99.90
13817;DHT22;6979;52.116;5.286;2022-12-10T07:10:20;4.00;99.90
13817;DHT22;6979;52.116;5.286;2022-12-10T07:12:49;4.00;99.90
13817;DHT22;6979;52.116;5.286;2022-12-10T07:15:16;4.00;99.90
13817;DHT22;6979;52.116;5.286;2022-12-10T07:17:43;4.00;99.90
13817;DHT22;6979;52.116;5.286;2022-12-10T07:20:10;4.00;99.90
13817;DHT22;6979;52.116;5.286;2022-12-10T07:22:38;4.00;99.90
13817;DHT22;6979;52.116;5.286;2022-12-10T07:25:07;4.00;99.90
13817;DHT22;6979;52.116;5.286;2022-12-10T07:27:34;4.00;99.90
13817;DHT22;6979;52.116;5.286;2022-12-10T07:30:01;4.00;99.90
13817;DHT22;6979;52.116;5.286;2022-12-10T07:32:28;4.00;99.90
13817;DHT22;6979;52.116;5.286;2022-12-10T07:34:55;4.00;99.90
13817;DHT22;6979;52.116;5.286;2022-12-10T07:37:22;4.00;99.90
13817;DHT22;6979;52.116;5.286;2022-12-10T07:39:49;4.00;99.90
13817;DHT22;6979;52.116;5.286;2022-12-10T07:42:17;4.00;99.90
13817;DHT22;6979;52.116;5.286;2022-12-10T07:44:47;4.10;99.90
13817;DHT22;6979;52.116;5.286;2022-12-10T07:47:15;4.10;99.90
13817;DHT22;6979;52.116;5.286;2022-12-10T07:49:42;4.10;99.90
13817;DHT22;6979;52.116;5.286;2022-12-10T07:52:09;4.10;99.90
13817;DHT22;6979;52.116;5.286;2022-12-10T07:54:36;4.10;99.90
13817;DHT22;6979;52.116;5.286;2022-12-10T07:57:03;4.10;99.90
13817;DHT22;6979;52.116;5.286;2022-12-10T07:59:31;4.10;99.90
13817;DHT22;6979;52.116;5.286;2022-12-10T08:01:58;4.10;99.90
13817;DHT22;6979;52.116;5.286;2022-12-10T08:04:27;4.10;99.90
13817;DHT22;6979;52.116;5.286;2022-12-10T08:06:55;4.10;99.90
13817;DHT22;6979;52.116;5.286;2022-12-10T08:09:22;4.10;99.90
13817;DHT22;6979;52.116;5.286;2022-12-10T08:11:49;4.00;99.90
13817;DHT22;6979;52.116;5.286;2022-12-10T08:14:16;4.00;99.90
13817;DHT22;6979;52.116;5.286;2022-12-10T08:16:44;4.00;99.90
13817;DHT22;6979;52.116;5.286;2022-12-10T08:19:11;4.00;99.90
13817;DHT22;6979;52.116;5.286;2022-12-10T08:21:38;4.00;99.90
13817;DHT22;6979;52.116;5.286;2022-12-10T08:24:05;4.00;99.90
13817;DHT22;6979;52.116;5.286;2022-12-10T08:26:33;3.90;99.90
13817;DHT22;6979;52.116;5.286;2022-12-10T08:29:00;3.90;99.90
13817;DHT22;6979;52.116;5.286;2022-12-10T08:31:28;3.90;99.90
13817;DHT22;6979;52.116;5.286;2022-12-10T08:33:56;3.90;99.90
13817;DHT22;6979;52.116;5.286;2022-12-10T08:36:26;3.90;99.90
13817;DHT22;6979;52.116;5.286;2022-12-10T08:38:53;3.90;99.90
13817;DHT22;6979;52.116;5.286;2022-12-10T08:41:22;3.90;99.90
13817;DHT22;6979;52.116;5.286;2022-12-10T08:43:51;3.90;99.90
13817;DHT22;6979;52.116;5.286;2022-12-10T08:46:22;3.90;99.90
13817;DHT22;6979;52.116;5.286;2022-12-10T08:48:50;3.90;99.90
13817;DHT22;6979;52.116;5.286;2022-12-10T08:51:19;3.80;99.90
13817;DHT22;6979;52.116;5.286;2022-12-10T08:53:46;3.80;99.90
13817;DHT22;6979;52.116;5.286;2022-12-10T08:56:13;3.80;99.90
13817;DHT22;6979;52.116;5.286;2022-12-10T08:58:41;3.80;99.90
13817;DHT22;6979;52.116;5.286;2022-12-10T09:01:13;3.80;99.90
13817;DHT22;6979;52.116;5.286;2022-12-10T09:03:40;3.80;99.90
13817;DHT22;6979;52.116;5.286;2022-12-10T09:06:09;3.80;99.90
13817;DHT22;6979;52.116;5.286;2022-12-10T09:08:38;3.80;99.90
13817;DHT22;6979;52.116;5.286;2022-12-10T09:11:06;3.80;99.90
13817;DHT22;6979;52.116;5.286;2022-12-10T09:13:34;3.80;99.90
13817;DHT22;6979;52.116;5.286;2022-12-10T09:16:01;3.70;99.90
13817;DHT22;6979;52.116;5.286;2022-12-10T09:18:28;3.70;99.90
13817;DHT22;6979;52.116;5.286;2022-12-10T09:20:54;3.80;99.90
13817;DHT22;6979;52.116;5.286;2022-12-10T09:23:21;3.70;99.90
13817;DHT22;6979;52.116;5.286;2022-12-10T09:25:50;3.70;99.90
13817;DHT22;6979;52.116;5.286;2022-12-10T09:28:17;3.70;99.90
13817;DHT22;6979;52.116;5.286;2022-12-10T09:30:44;3.70;99.90
13817;DHT22;6979;52.116;5.286;2022-12-10T09:33:10;3.70;99.90
13817;DHT22;6979;52.116;5.286;2022-12-10T09:35:40;3.70;99.90
13817;DHT22;6979;52.116;5.286;2022-12-10T09:38:07;3.70;99.90
13817;DHT22;6979;52.116;5.286;2022-12-10T09:40:40;3.70;99.90
13817;DHT22;6979;52.116;5.286;2022-12-10T09:43:18;3.70;99.90
13817;DHT22;6979;52.116;5.286;2022-12-10T09:45:56;3.70;99.90
13817;DHT22;6979;52.116;5.286;2022-12-10T09:48:31;3.70;99.90
13817;DHT22;6979;52.116;5.286;2022-12-10T09:51:03;3.70;99.90
13817;DHT22;6979;52.116;5.286;2022-12-10T09:53:32;3.80;99.90
13817;DHT22;6979;52.116;5.286;2022-12-10T09:56:01;3.80;99.90
13817;DHT22;6979;52.116;5.286;2022-12-10T09:58:30;3.80;99.90
13817;DHT22;6979;52.116;5.286;2022-12-10T10:00:59;3.80;99.90
13817;DHT22;6979;52.116;5.286;2022-12-10T10:03:28;3.70;99.90
13817;DHT22;6979;52.116;5.286;2022-12-10T10:05:57;3.70;99.90
13817;DHT22;6979;52.116;5.286;2022-12-10T10:08:28;3.70;99.90
13817;DHT22;6979;52.116;5.286;2022-12-10T10:10:59;3.70;99.90
13817;DHT22;6979;52.116;5.286;2022-12-10T10:13:34;3.70;99.90
13817;DHT22;6979;52.116;5.286;2022-12-10T10:16:18;3.70;99.90
13817;DHT22;6979;52.116;5.286;2022-12-10T10:18:48;3.70;99.90
13817;DHT22;6979;52.116;5.286;2022-12-10T10:21:21;3.70;99.90
13817;DHT22;6979;52.116;5.286;2022-12-10T10:23:49;3.70;99.90
13817;DHT22;6979;52.116;5.286;2022-12-10T10:26:16;3.70;99.90
13817;DHT22;6979;52.116;5.286;2022-12-10T10:28:44;3.70;99.90
13817;DHT22;6979;52.116;5.286;2022-12-10T10:31:19;3.70;99.90
13817;DHT22;6979;52.116;5.286;2022-12-10T10:33:52;3.70;99.90
13817;DHT22;6979;52.116;5.286;2022-12-10T10:36:27;3.70;99.90
13817;DHT22;6979;52.116;5.286;2022-12-10T10:38:55;3.80;99.90
13817;DHT22;6979;52.116;5.286;2022-12-10T10:41:24;3.80;99.90
13817;DHT22;6979;52.116;5.286;2022-12-10T10:43:59;3.90;99.90
13817;DHT22;6979;52.116;5.286;2022-12-10T10:46:27;3.90;99.90
13817;DHT22;6979;52.116;5.286;2022-12-10T10:49:13;3.90;99.90
13817;DHT22;6979;52.116;5.286;2022-12-10T10:51:42;3.90;99.90
13817;DHT22;6979;52.116;5.286;2022-12-10T10:54:11;4.00;99.90
13817;DHT22;6979;52.116;5.286;2022-12-10T10:56:42;4.00;99.90
13817;DHT22;6979;52.116;5.286;2022-12-10T10:59:28;4.00;99.90
13817;DHT22;6979;52.116;5.286;2022-12-10T11:02:01;4.00;99.90
13817;DHT22;6979;52.116;5.286;2022-12-10T11:04:35;4.10;99.90
13817;DHT22;6979;52.116;5.286;2022-12-10T11:07:04;4.10;99.90
13817;DHT22;6979;52.116;5.286;2022-12-10T11:09:33;4.10;99.90
13817;DHT22;6979;52.116;5.286;2022-12-10T11:12:05;4.10;99.90
13817;DHT22;6979;52.116;5.286;2022-12-10T11:14:39;4.00;99.90
13817;DHT22;6979;52.116;5.286;2022-12-10T11:17:18;4.10;99.90
13817;DHT22;6979;52.116;5.286;2022-12-10T11:19:55;4.10;99.90
13817;DHT22;6979;52.116;5.286;2022-12-10T11:22:24;4.10;99.90
13817;DHT22;6979;52.116;5.286;2022-12-10T11:24:52;4.10;99.90
13817;DHT22;6979;52.116;5.286;2022-12-10T11:27:29;4.10;99.90
13817;DHT22;6979;52.116;5.286;2022-12-10T11:30:03;4.00;99.90
13817;DHT22;6979;52.116;5.286;2022-12-10T11:32:52;4.00;99.90
13817;DHT22;6979;52.116;5.286;2022-12-10T11:35:30;4.00;99.90
13817;DHT22;6979;52.116;5.286;2022-12-10T11:38:06;4.00;99.90
13817;DHT22;6979;52.116;5.286;2022-12-10T11:40:42;4.00;99.90
13817;DHT22;6979;52.116;5.286;2022-12-10T11:43:31;4.10;99.90
13817;DHT22;6979;52.116;5.286;2022-12-10T11:46:19;4.10;99.90
13817;DHT22;6979;52.116;5.286;2022-12-10T11:48:59;4.10;99.90
13817;DHT22;6979;52.116;5.286;2022-12-10T11:51:34;4.10;99.90
13817;DHT22;6979;52.116;5.286;2022-12-10T11:54:15;4.10;99.90
13817;DHT22;6979;52.116;5.286;2022-12-10T11:56:51;4.20;99.90
13817;DHT22;6979;52.116;5.286;2022-12-10T11:59:23;4.20;99.90
13817;DHT22;6979;52.116;5.286;2022-12-10T12:02:10;4.20;99.90
13817;DHT22;6979;52.116;5.286;2022-12-10T12:04:54;4.20;99.90
13817;DHT22;6979;52.116;5.286;2022-12-10T12:07:41;4.20;99.90
13817;DHT22;6979;52.116;5.286;2022-12-10T12:13:15;4.20;99.90
13817;DHT22;6979;52.116;5.286;2022-12-10T12:15:46;4.20;99.90
13817;DHT22;6979;52.116;5.286;2022-12-10T12:18:21;4.20;99.90
13817;DHT22;6979;52.116;5.286;2022-12-10T12:20:53;4.20;99.90
13817;DHT22;6979;52.116;5.286;2022-12-10T12:23:25;4.20;99.90
13817;DHT22;6979;52.116;5.286;2022-12-10T12:25:58;4.20;99.90
13817;DHT22;6979;52.116;5.286;2022-12-10T12:28:30;4.20;99.90
13817;DHT22;6979;52.116;5.286;2022-12-10T12:31:01;4.20;99.90
13817;DHT22;6979;52.116;5.286;2022-12-10T12:33:40;4.30;99.90
13817;DHT22;6979;52.116;5.286;2022-12-10T12:36:11;4.30;99.90
13817;DHT22;6979;52.116;5.286;2022-12-10T12:38:46;4.30;99.90
13817;DHT22;6979;52.116;5.286;2022-12-10T12:41:16;4.40;99.90
13817;DHT22;6979;52.116;5.286;2022-12-10T12:43:52;4.40;99.90
13817;DHT22;6979;52.116;5.286;2022-12-10T12:46:32;4.40;99.90
13817;DHT22;6979;52.116;5.286;2022-12-10T12:49:09;4.40;99.90
13817;DHT22;6979;52.116;5.286;2022-12-10T12:51:39;4.40;99.90
13817;DHT22;6979;52.116;5.286;2022-12-10T12:54:09;4.30;99.90
13817;DHT22;6979;52.116;5.286;2022-12-10T12:59:43;4.40;99.90
13817;DHT22;6979;52.116;5.286;2022-12-10T13:02:22;4.40;99.90
13817;DHT22;6979;52.116;5.286;2022-12-10T13:04:53;4.40;99.90
13817;DHT22;6979;52.116;5.286;2022-12-10T13:07:31;4.40;99.90
13817;DHT22;6979;52.116;5.286;2022-12-10T13:10:25;4.40;99.90
13817;DHT22;6979;52.116;5.286;2022-12-10T13:13:16;4.40;99.90
13817;DHT22;6979;52.116;5.286;2022-12-10T13:15:43;4.40;99.90
13817;DHT22;6979;52.116;5.286;2022-12-10T13:18:35;4.30;99.90
13817;DHT22;6979;52.116;5.286;2022-12-10T13:21:29;4.30;99.90
13817;DHT22;6979;52.116;5.286;2022-12-10T13:24:11;4.30;99.90
13817;DHT22;6979;52.116;5.286;2022-12-10T13:29:26;4.30;99.90
13817;DHT22;6979;52.116;5.286;2022-12-10T13:31:56;4.30;99.90
13817;DHT22;6979;52.116;5.286;2022-12-10T13:34:34;4.30;99.90
13817;DHT22;6979;52.116;5.286;2022-12-10T13:37:28;4.30;99.90
13817;DHT22;6979;52.116;5.286;2022-12-10T13:40:11;4.30;99.90
13817;DHT22;6979;52.116;5.286;2022-12-10T13:42:43;4.40;99.90
13817;DHT22;6979;52.116;5.286;2022-12-10T13:45:31;4.40;99.90
13817;DHT22;6979;52.116;5.286;2022-12-10T13:48:26;4.40;99.90
13817;DHT22;6979;52.116;5.286;2022-12-10T13:51:18;4.40;99.90
13817;DHT22;6979;52.116;5.286;2022-12-10T13:54:04;4.40;99.90
13817;DHT22;6979;52.116;5.286;2022-12-10T13:56:40;4.40;99.90
13817;DHT22;6979;52.116;5.286;2022-12-10T13:59:17;4.40;99.90
13817;DHT22;6979;52.116;5.286;2022-12-10T14:01:54;4.40;99.90
13817;DHT22;6979;52.116;5.286;2022-12-10T14:04:44;4.40;99.90
13817;DHT22;6979;52.116;5.286;2022-12-10T14:07:15;4.40;99.90
13817;DHT22;6979;52.116;5.286;2022-12-10T14:09:49;4.40;99.90
13817;DHT22;6979;52.116;5.286;2022-12-10T14:12:19;4.30;99.90
13817;DHT22;6979;52.116;5.286;2022-12-10T14:14:54;4.40;99.90
13817;DHT22;6979;52.116;5.286;2022-12-10T14:17:25;4.40;99.90
13817;DHT22;6979;52.116;5.286;2022-12-10T14:19:55;4.40;99.90
13817;DHT22;6979;52.116;5.286;2022-12-10T14:22:30;4.40;99.90
13817;DHT22;6979;52.116;5.286;2022-12-10T14:25:02;4.40;99.90
13817;DHT22;6979;52.116;5.286;2022-12-10T14:27:32;4.40;99.90
13817;DHT22;6979;52.116;5.286;2022-12-10T14:30:01;4.40;99.90
13817;DHT22;6979;52.116;5.286;2022-12-10T14:32:32;4.40;99.90
13817;DHT22;6979;52.116;5.286;2022-12-10T14:35:00;4.40;99.90
13817;DHT22;6979;52.116;5.286;2022-12-10T14:37:30;4.40;99.90
13817;DHT22;6979;52.116;5.286;2022-12-10T14:39:59;4.40;99.90
13817;DHT22;6979;52.116;5.286;2022-12-10T14:42:27;4.40;99.90
13817;DHT22;6979;52.116;5.286;2022-12-10T14:44:57;4.50;99.90
13817;DHT22;6979;52.116;5.286;2022-12-10T14:47:25;4.50;99.90
13817;DHT22;6979;52.116;5.286;2022-12-10T14:49:54;4.50;99.90
13817;DHT22;6979;52.116;5.286;2022-12-10T14:52:23;4.50;99.90
13817;DHT22;6979;52.116;5.286;2022-12-10T14:54:51;4.50;99.90
13817;DHT22;6979;52.116;5.286;2022-12-10T14:57:24;4.50;99.90
13817;DHT22;6979;52.116;5.286;2022-12-10T14:59:58;4.50;99.90
13817;DHT22;6979;52.116;5.286;2022-12-10T15:02:29;4.50;99.90
13817;DHT22;6979;52.116;5.286;2022-12-10T15:04:57;4.50;99.90
13817;DHT22;6979;52.116;5.286;2022-12-10T15:07:26;4.60;99.90
13817;DHT22;6979;52.116;5.286;2022-12-10T15:09:54;4.60;99.90
13817;DHT22;6979;52.116;5.286;2022-12-10T15:12:29;4.60;99.90
13817;DHT22;6979;52.116;5.286;2022-12-10T15:15:01;4.60;99.90
13817;DHT22;6979;52.116;5.286;2022-12-10T15:17:40;4.60;99.90
13817;DHT22;6979;52.116;5.286;2022-12-10T15:20:19;4.60;99.90
13817;DHT22;6979;52.116;5.286;2022-12-10T15:22:46;4.60;99.90
13817;DHT22;6979;52.116;5.286;2022-12-10T15:25:20;4.50;99.90
13817;DHT22;6979;52.116;5.286;2022-12-10T15:27:57;4.60;99.90
13817;DHT22;6979;52.116;5.286;2022-12-10T15:30:33;4.60;99.90
13817;DHT22;6979;52.116;5.286;2022-12-10T15:33:00;4.60;99.90
13817;DHT22;6979;52.116;5.286;2022-12-10T15:35:27;4.60;99.90
13817;DHT22;6979;52.116;5.286;2022-12-10T15:37:55;4.60;99.90
13817;DHT22;6979;52.116;5.286;2022-12-10T15:40:27;4.60;99.90
13817;DHT22;6979;52.116;5.286;2022-12-10T15:43:11;4.60;99.90
13817;DHT22;6979;52.116;5.286;2022-12-10T15:45:40;4.60;99.90
13817;DHT22;6979;52.116;5.286;2022-12-10T15:48:08;4.60;99.90
13817;DHT22;6979;52.116;5.286;2022-12-10T15:50:36;4.70;99.90
13817;DHT22;6979;52.116;5.286;2022-12-10T15:53:03;4.70;99.90
13817;DHT22;6979;52.116;5.286;2022-12-10T15:55:30;4.70;99.90
13817;DHT22;6979;52.116;5.286;2022-12-10T15:57:58;4.70;99.90
13817;DHT22;6979;52.116;5.286;2022-12-10T16:00:27;4.70;99.90
13817;DHT22;6979;52.116;5.286;2022-12-10T16:02:56;4.80;99.90
13817;DHT22;6979;52.116;5.286;2022-12-10T16:05:26;4.80;99.90
13817;DHT22;6979;52.116;5.286;2022-12-10T16:07:56;4.80;99.90
13817;DHT22;6979;52.116;5.286;2022-12-10T16:10:27;4.80;99.90
13817;DHT22;6979;52.116;5.286;2022-12-10T16:13:00;4.80;99.90
13817;DHT22;6979;52.116;5.286;2022-12-10T16:15:29;4.70;99.90
13817;DHT22;6979;52.116;5.286;2022-12-10T16:17:58;4.80;99.90
13817;DHT22;6979;52.116;5.286;2022-12-10T16:20:27;4.80;99.90
13817;DHT22;6979;52.116;5.286;2022-12-10T16:22:56;4.70;99.90
13817;DHT22;6979;52.116;5.286;2022-12-10T16:25:25;4.80;99.90
13817;DHT22;6979;52.116;5.286;2022-12-10T16:27:52;4.80;99.90
13817;DHT22;6979;52.116;5.286;2022-12-10T16:30:23;4.80;99.90
13817;DHT22;6979;52.116;5.286;2022-12-10T16:32:51;4.80;99.90
13817;DHT22;6979;52.116;5.286;2022-12-10T16:35:18;4.80;99.90